Terminal Aerodrome Forecast
Issued by NWS

Home | Current Version | Previous Version | Text Only | Print | Product List | Glossary On
Versions: 1 2 3 4 5 6 7 8 9 10 11 12 13 14 15 16 17
000
FTUS44 KMAF 212335
TAFCNM
TAF
KCNM 212335Z 2200/2224 27040G50KT 6SM BLDU BKN100
     FM221200 28025G35KT P6SM SCT200=

USA.gov is the U.S. government's official web portal to all federal, state and local government web resources and services.